Time;durP1;ratioP1;P1;durP2;ratioP2;P2;SDS_P1;SDS_P2;PMS_P1;PMS_P2;Temp;Humidity;BMP_temperature;BMP_pressure;BME280_temperature;BME280_humidity;BME280_pressure;Samples;Min_cycle;Max_cycle;Signal;HPM_P1;HPM_P2
2023/06/21 00:00:53;;;;;;;;;11.00;10.00;;;;;;;;1998422;28;1821151;-76
2023/06/21 00:02:06;;;;;;;;;7.67;7.67;;;;;;;;2025312;28;1819573;-76
2023/06/21 00:03:17;;;;;;;;;10.00;10.00;;;;;;;;1969096;28;2791199;-76
2023/06/21 00:04:27;;;;;;;;;9.50;8.00;;;;;;;;1972345;28;2753386;-76
2023/06/21 00:05:38;;;;;;;;;8.25;8.00;;;;;;;;2023628;28;1819082;-77
2023/06/21 00:06:49;;;;;;;;;11.67;11.00;;;;;;;;1995537;28;3515884;-77
2023/06/21 00:08:00;;;;;;;;;10.00;9.50;;;;;;;;1991936;28;2774262;-77
2023/06/21 00:09:11;;;;;;;;;7.00;7.00;;;;;;;;1990870;28;2738761;-77
2023/06/21 00:10:23;;;;;;;;;10.00;9.00;;;;;;;;2002461;28;2762765;-77
2023/06/21 00:11:33;;;;;;;;;9.50;8.00;;;;;;;;1993738;28;2756512;-77
2023/06/21 00:12:44;;;;;;;;;7.50;6.00;;;;;;;;2016079;28;2738803;-77
2023/06/21 00:13:55;;;;;;;;;11.50;9.00;;;;;;;;2013781;28;1823212;-77
2023/06/21 00:15:06;;;;;;;;;9.00;9.00;;;;;;;;1991504;28;2743987;-77
2023/06/21 00:16:16;;;;;;;;;7.00;7.00;;;;;;;;1982043;28;2736203;-77
2023/06/21 00:17:27;;;;;;;;;6.67;6.67;;;;;;;;2012850;28;3451334;-77
2023/06/21 00:18:39;;;;;;;;;10.50;10.33;;;;;;;;2014096;28;2793978;-77
2023/06/21 00:19:53;;;;;;;;;9.80;8.00;;;;;;;;1999443;28;1823165;-77
2023/06/21 00:21:07;;;;;;;;;10.86;10.86;;;;;;;;2025198;28;1819100;-78
2023/06/21 00:22:21;;;;;;;;;13.50;13.50;;;;;;;;1992089;28;2795100;-77
2023/06/21 00:23:32;;;;;;;;;10.00;10.00;;;;;;;;1968529;28;2783581;-77
2023/06/21 00:24:43;;;;;;;;;15.00;11.75;;;;;;;;1985188;28;2787749;-77
2023/06/21 00:25:55;;;;;;;;;13.50;11.83;;;;;;;;1987673;28;2796068;-77
2023/06/21 00:27:07;;;;;;;;;16.29;12.00;;;;;;;;1992137;28;3524165;-75
2023/06/21 00:28:20;;;;;;;;;11.67;11.00;;;;;;;;2024574;28;2788801;-76
2023/06/21 00:29:33;;;;;;;;;13.33;10.83;;;;;;;;1991751;28;2791911;-75
2023/06/21 00:30:45;;;;;;;;;11.83;10.17;;;;;;;;1989822;28;2793982;-74
2023/06/21 00:31:58;;;;;;;;;12.50;11.00;;;;;;;;1993144;28;2784631;-74
2023/06/21 00:33:08;;;;;;;;;10.00;8.00;;;;;;;;1985385;28;2766944;-76
2023/06/21 00:34:19;;;;;;;;;11.50;11.00;;;;;;;;1971462;28;2791939;-76
2023/06/21 00:35:30;;;;;;;;;10.00;9.00;;;;;;;;1993120;28;1815950;-76
2023/06/21 00:36:44;;;;;;;;;11.33;8.33;;;;;;;;1999347;28;1819118;-76
2023/06/21 00:37:57;;;;;;;;;9.17;9.17;;;;;;;;2002246;28;1821127;-76
2023/06/21 00:39:08;;;;;;;;;10.00;10.00;;;;;;;;1969520;28;2794029;-76
2023/06/21 00:40:22;;;;;;;;;11.00;10.00;;;;;;;;1967901;28;2789823;-76
2023/06/21 00:41:36;;;;;;;;;12.71;10.00;;;;;;;;2002045;28;1815935;-76
2023/06/21 00:42:48;;;;;;;;;12.60;12.20;;;;;;;;2010272;28;2804465;-76
2023/06/21 00:43:59;;;;;;;;;13.50;11.50;;;;;;;;1996162;28;1821157;-76
2023/06/21 00:45:14;;;;;;;;;10.50;8.00;;;;;;;;1995793;28;2764888;-76
2023/06/21 00:46:29;;;;;;;;;6.83;6.83;;;;;;;;2020442;28;2737762;-76
2023/06/21 00:47:40;;;;;;;;;9.50;8.00;;;;;;;;1968977;28;2746107;-76
2023/06/21 00:48:52;;;;;;;;;11.17;10.17;;;;;;;;2015612;28;2790860;-76
2023/06/21 00:50:03;;;;;;;;;8.00;7.33;;;;;;;;1992974;28;2735666;-78
2023/06/21 00:51:13;;;;;;;;;7.50;7.00;;;;;;;;2008583;28;2741947;-78
2023/06/21 00:52:25;;;;;;;;;7.75;7.75;;;;;;;;2022979;28;1814866;-78
2023/06/21 00:53:40;;;;;;;;;10.00;8.00;;;;;;;;2004245;28;1825283;-77
2023/06/21 00:54:50;;;;;;;;;7.50;5.50;;;;;;;;1994694;28;2481474;-77
2023/06/21 00:56:01;;;;;;;;;6.00;6.00;;;;;;;;2012194;28;2736806;-77
2023/06/21 00:57:12;;;;;;;;;7.00;6.00;;;;;;;;1998401;28;2740906;-76
2023/06/21 00:58:23;;;;;;;;;6.67;6.00;;;;;;;;1999024;28;3463791;-74
2023/06/21 00:59:35;;;;;;;;;8.67;7.67;;;;;;;;1997765;28;2742075;-74
2023/06/21 01:00:46;;;;;;;;;5.00;5.00;;;;;;;;1990771;28;2739869;-74
2023/06/21 01:01:58;;;;;;;;;8.00;7.25;;;;;;;;2011441;28;1819086;-74
2023/06/21 01:03:09;;;;;;;;;7.00;5.00;;;;;;;;1995310;28;2746114;-74
2023/06/21 01:04:21;;;;;;;;;6.00;6.00;;;;;;;;1993912;28;3455459;-75
2023/06/21 01:05:33;;;;;;;;;9.67;8.00;;;;;;;;1995432;28;2736775;-74
2023/06/21 01:06:46;;;;;;;;;7.33;6.67;;;;;;;;1994366;28;3447127;-74
2023/06/21 01:08:02;;;;;;;;;7.33;6.33;;;;;;;;1985386;28;2735724;-75
2023/06/21 01:09:31;;;;;;;;;6.00;5.33;;;;;;;;1988224;28;2748625;-74
2023/06/21 01:11:03;;;;;;;;;8.00;7.00;;;;;;;;2020414;28;2729490;-74
2023/06/21 01:12:27;;;;;;;;;5.67;5.67;;;;;;;;1997057;28;2737828;-74
2023/06/21 01:13:43;;;;;;;;;5.00;5.00;;;;;;;;1964823;28;2739850;-74
2023/06/21 01:15:04;;;;;;;;;5.33;5.00;;;;;;;;1994550;28;2745222;-74
2023/06/21 01:16:16;;;;;;;;;5.67;4.67;;;;;;;;1995133;28;2742958;-75
2023/06/21 01:17:29;;;;;;;;;4.33;4.33;;;;;;;;1994309;28;2746274;-75
2023/06/21 01:18:46;;;;;;;;;5.67;5.67;;;;;;;;1987209;28;2744096;-74
2023/06/21 01:19:57;;;;;;;;;5.33;5.33;;;;;;;;2008189;28;1810665;-74
2023/06/21 01:21:09;;;;;;;;;5.33;5.00;;;;;;;;1967958;28;3459620;-75
2023/06/21 01:22:22;;;;;;;;;5.67;5.00;;;;;;;;1987406;28;2748257;-75
2023/06/21 01:23:45;;;;;;;;;1.67;1.67;;;;;;;;1994739;28;2747237;-75
2023/06/21 01:25:17;;;;;;;;;7.00;5.17;;;;;;;;2019389;28;2745061;-75
2023/06/21 01:26:46;;;;;;;;;4.00;4.00;;;;;;;;1976880;28;3455442;-75
2023/06/21 01:28:17;;;;;;;;;7.33;5.00;;;;;;;;2019992;28;2738815;-75
2023/06/21 01:29:33;;;;;;;;;3.00;3.00;;;;;;;;1997542;28;2733604;-75
2023/06/21 01:30:45;;;;;;;;;5.00;5.00;;;;;;;;1968831;28;2739829;-75
2023/06/21 01:31:56;;;;;;;;;6.00;6.00;;;;;;;;1995122;28;2733608;-75
2023/06/21 01:33:07;;;;;;;;;7.00;5.00;;;;;;;;1986426;28;2746154;-75
2023/06/21 01:34:18;;;;;;;;;4.00;4.00;;;;;;;;1987651;28;2746094;-75
2023/06/21 01:35:29;;;;;;;;;6.00;6.00;;;;;;;;1994484;28;2730505;-75
2023/06/21 01:36:40;;;;;;;;;8.00;5.00;;;;;;;;2024380;28;1819037;-75
2023/06/21 01:37:51;;;;;;;;;8.00;6.00;;;;;;;;1994557;28;2743089;-75
2023/06/21 01:39:04;;;;;;;;;5.00;5.00;;;;;;;;2007443;28;2747232;-75
2023/06/21 01:40:15;;;;;;;;;5.33;5.33;;;;;;;;1993954;28;3459596;-75
2023/06/21 01:41:28;;;;;;;;;6.33;5.33;;;;;;;;1994845;28;2740972;-75
2023/06/21 01:42:39;;;;;;;;;5.00;5.00;;;;;;;;1992419;28;3460650;-75
2023/06/21 01:43:50;;;;;;;;;4.33;4.33;;;;;;;;2008591;28;3465914;-75
2023/06/21 01:45:01;;;;;;;;;8.00;5.00;;;;;;;;2006379;28;2746213;-75
2023/06/21 01:46:13;;;;;;;;;5.33;5.33;;;;;;;;2011778;28;2748262;-75
2023/06/21 01:47:23;;;;;;;;;5.00;3.33;;;;;;;;1994755;28;2740910;-75
2023/06/21 01:48:34;;;;;;;;;4.00;4.00;;;;;;;;2017290;28;2734636;-75
2023/06/21 01:49:46;;;;;;;;;5.67;5.00;;;;;;;;1994234;28;2746188;-76
2023/06/21 01:50:57;;;;;;;;;4.00;4.00;;;;;;;;1986268;28;2749258;-76
2023/06/21 01:52:08;;;;;;;;;4.00;4.00;;;;;;;;1986476;28;2745074;-76
2023/06/21 01:53:19;;;;;;;;;6.00;6.00;;;;;;;;2009241;28;2737766;-75
2023/06/21 01:54:29;;;;;;;;;5.00;4.00;;;;;;;;2004774;28;2752454;-75
2023/06/21 01:55:44;;;;;;;;;5.00;5.00;;;;;;;;2001135;28;2746160;-77
2023/06/21 01:56:58;;;;;;;;;7.00;4.67;;;;;;;;1994766;28;2741916;-77
2023/06/21 01:58:10;;;;;;;;;4.00;4.00;;;;;;;;1992051;28;2739928;-77
2023/06/21 01:59:20;;;;;;;;;5.00;5.00;;;;;;;;1994966;28;2745076;-77
2023/06/21 02:00:31;;;;;;;;;5.00;4.00;;;;;;;;2014088;28;2738927;-77
2023/06/21 02:01:42;;;;;;;;;6.00;4.00;;;;;;;;2017972;28;2739243;-76
2023/06/21 02:02:54;;;;;;;;;4.00;4.00;;;;;;;;1994655;28;2752443;-76
2023/06/21 02:04:05;;;;;;;;;6.00;5.00;;;;;;;;1994403;28;2746521;-76
2023/06/21 02:05:19;;;;;;;;;5.33;5.00;;;;;;;;2001643;28;3459631;-76
2023/06/21 02:06:30;;;;;;;;;6.00;6.00;;;;;;;;1994168;28;2746687;-76
2023/06/21 02:07:45;;;;;;;;;5.50;4.67;;;;;;;;2020051;28;2742974;-76
2023/06/21 02:08:57;;;;;;;;;6.33;4.00;;;;;;;;1970414;28;3454408;-76
2023/06/21 02:10:09;;;;;;;;;7.00;4.67;;;;;;;;1994732;28;2746172;-76
2023/06/21 02:11:21;;;;;;;;;6.67;5.00;;;;;;;;1994391;28;2740282;-76
2023/06/21 02:12:34;;;;;;;;;6.67;5.00;;;;;;;;1993092;28;2747141;-76
2023/06/21 02:13:52;;;;;;;;;3.83;3.83;;;;;;;;2012066;28;2747128;-75
2023/06/21 02:15:03;;;;;;;;;6.00;5.67;;;;;;;;1971525;28;3459644;-75
2023/06/21 02:16:16;;;;;;;;;5.00;4.67;;;;;;;;1992723;28;2748262;-75
2023/06/21 02:17:29;;;;;;;;;5.00;4.67;;;;;;;;1988309;28;2742972;-75
2023/06/21 02:18:42;;;;;;;;;2.00;2.00;;;;;;;;2020663;28;2730486;-75
2023/06/21 02:19:55;;;;;;;;;5.67;4.00;;;;;;;;1972990;28;2739959;-75
2023/06/21 02:21:05;;;;;;;;;3.33;3.33;;;;;;;;1995294;28;2754518;-75
2023/06/21 02:22:18;;;;;;;;;4.67;4.67;;;;;;;;2020004;28;2738808;-75
2023/06/21 02:23:31;;;;;;;;;6.83;5.33;;;;;;;;1999886;28;2735687;-75
2023/06/21 02:24:41;;;;;;;;;5.00;4.00;;;;;;;;1971751;28;3466919;-77
2023/06/21 02:25:52;;;;;;;;;9.00;4.00;;;;;;;;2018008;28;2743076;-77
2023/06/21 02:27:03;;;;;;;;;4.00;4.00;;;;;;;;2013098;28;2740957;-77
2023/06/21 02:28:16;;;;;;;;;6.33;4.67;;;;;;;;2011273;28;2748284;-78
2023/06/21 02:29:26;;;;;;;;;5.00;4.33;;;;;;;;1992056;28;3460654;-77
2023/06/21 02:30:37;;;;;;;;;7.00;4.33;;;;;;;;2011694;28;2750266;-77
2023/06/21 02:31:48;;;;;;;;;5.00;5.00;;;;;;;;2015585;28;2745048;-77
2023/06/21 02:32:59;;;;;;;;;3.00;3.00;;;;;;;;2015202;28;2741936;-77
2023/06/21 02:34:10;;;;;;;;;3.33;3.00;;;;;;;;2002365;28;2736801;-77
2023/06/21 02:35:21;;;;;;;;;4.00;4.00;;;;;;;;2013605;28;3464856;-77
2023/06/21 02:36:32;;;;;;;;;5.00;4.00;;;;;;;;2013919;28;2748287;-76
2023/06/21 02:37:42;;;;;;;;;5.67;5.00;;;;;;;;2008926;28;2750366;-76
2023/06/21 02:38:53;;;;;;;;;5.00;5.00;;;;;;;;2020013;28;2741929;-75
2023/06/21 02:40:09;;;;;;;;;7.00;5.67;;;;;;;;1997057;28;2732569;-77
2023/06/21 02:41:20;;;;;;;;;4.67;4.67;;;;;;;;1996367;28;2742985;-77
2023/06/21 02:42:32;;;;;;;;;5.00;5.00;;;;;;;;2017423;28;2746142;-77
2023/06/21 02:43:42;;;;;;;;;3.67;3.67;;;;;;;;1995065;28;2751452;-77
2023/06/21 02:44:53;;;;;;;;;5.00;5.00;;;;;;;;2018061;28;2743001;-77
2023/06/21 02:46:04;;;;;;;;;3.33;3.33;;;;;;;;2015105;28;2746118;-77
2023/06/21 02:47:15;;;;;;;;;4.67;4.33;;;;;;;;2015123;28;3461698;-78
2023/06/21 02:48:26;;;;;;;;;7.67;5.33;;;;;;;;2015350;28;3458591;-78
2023/06/21 02:49:37;;;;;;;;;4.67;4.00;;;;;;;;2012183;28;2741997;-78
2023/06/21 02:50:48;;;;;;;;;4.00;4.00;;;;;;;;2012280;28;3463775;-78
2023/06/21 02:51:58;;;;;;;;;7.67;4.00;;;;;;;;1997289;28;2752420;-78
2023/06/21 02:53:09;;;;;;;;;5.33;4.33;;;;;;;;2013384;28;2740883;-78
2023/06/21 02:54:20;;;;;;;;;5.00;5.00;;;;;;;;2003922;28;2752966;-78
2023/06/21 02:55:31;;;;;;;;;4.00;3.33;;;;;;;;2006811;28;3458614;-78
2023/06/21 02:56:45;;;;;;;;;6.00;4.00;;;;;;;;2014730;28;2751427;-78
2023/06/21 02:57:55;;;;;;;;;5.00;5.00;;;;;;;;1995801;28;2741030;-77
2023/06/21 02:59:06;;;;;;;;;5.00;4.67;;;;;;;;2016990;28;2748373;-78
2023/06/21 03:00:28;;;;;;;;;5.00;5.00;;;;;;;;2015944;28;2735682;-76
2023/06/21 03:01:41;;;;;;;;;4.00;3.00;;;;;;;;1999884;28;2740218;-76
2023/06/21 03:02:51;;;;;;;;;2.33;2.33;;;;;;;;1972351;28;2739944;-77
2023/06/21 03:04:02;;;;;;;;;3.67;3.67;;;;;;;;2016881;28;2747259;-77
2023/06/21 03:05:13;;;;;;;;;8.00;5.33;;;;;;;;2020576;28;2726340;-75
2023/06/21 03:06:23;;;;;;;;;3.67;3.67;;;;;;;;1973833;28;2746175;-75
2023/06/21 03:07:34;;;;;;;;;7.00;4.00;;;;;;;;2009339;28;2752423;-75
2023/06/21 03:08:45;;;;;;;;;5.67;4.00;;;;;;;;2007596;28;2741931;-76
2023/06/21 03:09:56;;;;;;;;;4.67;4.00;;;;;;;;2002690;28;2747129;-76
2023/06/21 03:11:08;;;;;;;;;6.33;6.33;;;;;;;;2014553;28;2741940;-79
2023/06/21 03:12:18;;;;;;;;;4.67;4.67;;;;;;;;1987609;28;3467914;-79
2023/06/21 03:13:29;;;;;;;;;4.00;4.00;;;;;;;;2015520;28;2753460;-76
2023/06/21 03:14:41;;;;;;;;;5.00;5.00;;;;;;;;2012276;28;2742997;-76
2023/06/21 03:15:54;;;;;;;;;5.33;5.00;;;;;;;;2020875;28;2736185;-74
2023/06/21 03:17:04;;;;;;;;;6.33;5.00;;;;;;;;1971589;28;2746079;-74
2023/06/21 03:18:16;;;;;;;;;5.00;3.67;;;;;;;;2016504;28;2752445;-78
2023/06/21 03:19:26;;;;;;;;;7.00;5.00;;;;;;;;1997298;28;2745194;-78
2023/06/21 03:20:37;;;;;;;;;3.00;3.00;;;;;;;;2000445;28;2748210;-78
2023/06/21 03:21:49;;;;;;;;;5.00;5.00;;;;;;;;2012421;28;2746685;-78
2023/06/21 03:23:00;;;;;;;;;5.00;5.00;;;;;;;;1995386;28;2743091;-77
2023/06/21 03:24:10;;;;;;;;;5.00;5.00;;;;;;;;1995871;28;2740893;-78
2023/06/21 03:25:21;;;;;;;;;6.67;4.00;;;;;;;;2018154;28;2739857;-77
2023/06/21 03:26:32;;;;;;;;;4.33;4.33;;;;;;;;2011634;28;2741959;-77
2023/06/21 03:27:43;;;;;;;;;5.67;5.67;;;;;;;;2019512;28;2745126;-76
2023/06/21 03:28:57;;;;;;;;;5.17;5.00;;;;;;;;1999473;28;2741979;-76
2023/06/21 03:30:11;;;;;;;;;4.00;4.00;;;;;;;;1994045;28;2751381;-76
2023/06/21 03:31:22;;;;;;;;;3.67;3.00;;;;;;;;1993567;28;2748304;-76
2023/06/21 03:32:33;;;;;;;;;4.67;4.67;;;;;;;;2009902;28;2746122;-76
2023/06/21 03:33:44;;;;;;;;;5.00;3.00;;;;;;;;2014147;28;2752476;-76
2023/06/21 03:34:54;;;;;;;;;4.00;4.00;;;;;;;;2014031;28;2754516;-76
2023/06/21 03:36:05;;;;;;;;;5.00;5.00;;;;;;;;2014749;28;2742961;-76
2023/06/21 03:37:16;;;;;;;;;8.67;5.00;;;;;;;;2013866;28;2746190;-76
2023/06/21 03:38:27;;;;;;;;;6.00;6.00;;;;;;;;2014809;28;2742973;-76
2023/06/21 03:39:38;;;;;;;;;6.00;6.00;;;;;;;;2014602;28;2739849;-77
2023/06/21 03:40:49;;;;;;;;;5.33;5.33;;;;;;;;2009545;28;2735655;-77
2023/06/21 03:42:00;;;;;;;;;7.50;6.50;;;;;;;;2014695;28;2467941;-79
2023/06/21 03:43:11;;;;;;;;;7.00;7.00;;;;;;;;2011078;28;2733618;-78
2023/06/21 03:44:21;;;;;;;;;7.67;7.67;;;;;;;;1989556;28;3453405;-78
2023/06/21 03:45:32;;;;;;;;;7.67;7.67;;;;;;;;2017899;28;2741951;-78
2023/06/21 03:46:43;;;;;;;;;10.00;8.00;;;;;;;;2025385;28;1831505;-79
2023/06/21 03:47:55;;;;;;;;;7.20;7.20;;;;;;;;1997713;28;2735686;-79
2023/06/21 03:49:05;;;;;;;;;10.00;8.00;;;;;;;;1970036;28;2764880;-79
2023/06/21 03:50:17;;;;;;;;;7.00;7.00;;;;;;;;2014681;28;2470041;-79
2023/06/21 03:51:27;;;;;;;;;6.00;6.00;;;;;;;;2003658;28;3446047;-79
2023/06/21 03:52:38;;;;;;;;;8.67;8.00;;;;;;;;2015473;28;3455788;-77
2023/06/21 03:53:49;;;;;;;;;6.67;6.67;;;;;;;;2008944;28;3456464;-77
2023/06/21 03:55:01;;;;;;;;;7.00;5.00;;;;;;;;2014287;28;2747144;-77
2023/06/21 03:56:11;;;;;;;;;7.00;6.00;;;;;;;;1995915;28;2741960;-77
2023/06/21 03:57:22;;;;;;;;;6.00;5.00;;;;;;;;2018187;28;3450256;-77
2023/06/21 03:58:33;;;;;;;;;8.00;7.00;;;;;;;;2014258;28;3457588;-77
2023/06/21 03:59:44;;;;;;;;;6.00;5.00;;;;;;;;2012758;28;2745540;-77
2023/06/21 04:00:55;;;;;;;;;6.67;5.33;;;;;;;;2014090;28;2743062;-77
2023/06/21 04:02:05;;;;;;;;;5.67;5.00;;;;;;;;2014810;28;2742959;-78
2023/06/21 04:03:16;;;;;;;;;5.00;5.00;;;;;;;;2014281;28;2735660;-78
2023/06/21 04:04:27;;;;;;;;;6.00;6.00;;;;;;;;2012766;28;2746079;-78
2023/06/21 04:05:38;;;;;;;;;8.33;7.00;;;;;;;;2015176;28;2732644;-76
2023/06/21 04:06:49;;;;;;;;;9.00;7.00;;;;;;;;2014151;28;3470023;-75
2023/06/21 04:08:00;;;;;;;;;7.00;7.00;;;;;;;;2000477;28;3456975;-75
2023/06/21 04:09:11;;;;;;;;;7.00;6.00;;;;;;;;2013901;28;2739900;-75
2023/06/21 04:10:22;;;;;;;;;8.00;7.00;;;;;;;;2016790;28;1821123;-76
2023/06/21 04:11:35;;;;;;;;;5.00;5.00;;;;;;;;2016541;28;2750269;-76
2023/06/21 04:12:46;;;;;;;;;2.67;2.67;;;;;;;;1966762;28;2746093;-76
2023/06/21 04:13:57;;;;;;;;;5.33;4.00;;;;;;;;2003197;28;2748189;-75
2023/06/21 04:15:08;;;;;;;;;10.33;8.00;;;;;;;;2004906;28;3465854;-75
2023/06/21 04:16:18;;;;;;;;;6.00;5.00;;;;;;;;1999540;28;2746146;-75
2023/06/21 04:17:29;;;;;;;;;8.00;6.00;;;;;;;;2007131;28;2739837;-75
2023/06/21 04:18:40;;;;;;;;;8.00;7.00;;;;;;;;2012142;28;2739856;-75
2023/06/21 04:19:51;;;;;;;;;8.33;6.67;;;;;;;;2013234;28;2739947;-75
2023/06/21 04:21:03;;;;;;;;;10.75;8.00;;;;;;;;2025016;28;1821085;-75
2023/06/21 04:22:13;;;;;;;;;7.00;6.33;;;;;;;;1994479;28;3456503;-75
2023/06/21 04:23:26;;;;;;;;;7.00;7.00;;;;;;;;2019206;28;2736759;-75
2023/06/21 04:24:36;;;;;;;;;7.00;7.00;;;;;;;;1994735;28;2739849;-75
2023/06/21 04:25:47;;;;;;;;;5.67;5.67;;;;;;;;1998604;28;3455797;-75
2023/06/21 04:26:58;;;;;;;;;6.00;5.00;;;;;;;;2007092;28;2740933;-76
2023/06/21 04:28:10;;;;;;;;;6.50;6.25;;;;;;;;2025024;28;1817955;-75
2023/06/21 04:29:20;;;;;;;;;6.00;5.00;;;;;;;;1995537;28;2741920;-76
2023/06/21 04:30:34;;;;;;;;;8.33;8.33;;;;;;;;2023571;28;1825254;-76
2023/06/21 04:31:44;;;;;;;;;6.67;6.00;;;;;;;;1972907;28;2745178;-76
2023/06/21 04:32:55;;;;;;;;;5.67;5.67;;;;;;;;2019437;28;2736744;-76
2023/06/21 04:34:06;;;;;;;;;6.00;6.00;;;;;;;;1995172;28;3456478;-76
2023/06/21 04:35:17;;;;;;;;;7.00;7.00;;;;;;;;2019657;28;2732554;-76
2023/06/21 04:36:27;;;;;;;;;7.00;6.00;;;;;;;;1994085;28;2734199;-77
2023/06/21 04:37:38;;;;;;;;;8.33;5.33;;;;;;;;2017260;28;2748178;-74
2023/06/21 04:38:49;;;;;;;;;5.33;5.33;;;;;;;;2002131;28;2747129;-75
2023/06/21 04:40:00;;;;;;;;;5.33;5.33;;;;;;;;2010018;28;3459660;-74
2023/06/21 04:41:11;;;;;;;;;7.00;4.00;;;;;;;;2013518;28;2735678;-74
2023/06/21 04:42:22;;;;;;;;;7.33;6.67;;;;;;;;2013168;28;3452348;-74
2023/06/21 04:43:33;;;;;;;;;7.00;6.00;;;;;;;;2014244;28;3459616;-74
2023/06/21 04:44:48;;;;;;;;;6.00;5.33;;;;;;;;2012743;28;2742998;-74
2023/06/21 04:45:59;;;;;;;;;9.00;6.33;;;;;;;;1994761;28;2741908;-75
2023/06/21 04:47:10;;;;;;;;;7.00;6.25;;;;;;;;2010710;28;1810663;-75
2023/06/21 04:48:24;;;;;;;;;5.00;3.00;;;;;;;;1994178;28;2751376;-75
2023/06/21 04:49:37;;;;;;;;;9.00;6.17;;;;;;;;2020134;28;2737794;-75
2023/06/21 04:50:50;;;;;;;;;6.67;5.83;;;;;;;;1997749;28;2734653;-74
2023/06/21 04:52:00;;;;;;;;;6.00;6.00;;;;;;;;1972614;28;2739849;-75
2023/06/21 04:53:12;;;;;;;;;5.00;5.00;;;;;;;;2025590;28;1816913;-75
2023/06/21 04:54:23;;;;;;;;;8.00;5.67;;;;;;;;1994676;28;2740983;-75
2023/06/21 04:55:34;;;;;;;;;8.67;6.67;;;;;;;;2017734;28;2737826;-75
2023/06/21 04:56:44;;;;;;;;;6.00;5.00;;;;;;;;1972042;28;3458598;-75
2023/06/21 04:57:56;;;;;;;;;6.00;6.00;;;;;;;;2019626;28;2733639;-75
2023/06/21 04:59:08;;;;;;;;;6.00;5.00;;;;;;;;1993592;28;3461691;-75
2023/06/21 05:00:18;;;;;;;;;8.00;6.33;;;;;;;;1995106;28;2746716;-75
2023/06/21 05:01:30;;;;;;;;;7.00;7.00;;;;;;;;2009073;28;2746119;-75
2023/06/21 05:02:41;;;;;;;;;8.00;7.00;;;;;;;;2008314;28;1821093;-75
2023/06/21 05:03:52;;;;;;;;;7.00;5.00;;;;;;;;1994455;28;2746260;-75
2023/06/21 05:05:03;;;;;;;;;5.33;5.33;;;;;;;;2006589;28;1808082;-75
2023/06/21 05:06:15;;;;;;;;;5.50;5.50;;;;;;;;1994554;28;2730478;-74
2023/06/21 05:07:25;;;;;;;;;7.00;6.00;;;;;;;;1994038;28;3453421;-74
2023/06/21 05:08:36;;;;;;;;;10.33;7.00;;;;;;;;2017263;28;3481509;-74
2023/06/21 05:09:47;;;;;;;;;9.00;6.33;;;;;;;;2019258;28;2735693;-74
2023/06/21 05:10:57;;;;;;;;;10.33;9.00;;;;;;;;1993430;28;2754494;-74
2023/06/21 05:12:08;;;;;;;;;7.00;6.00;;;;;;;;2011168;28;2730464;-74
2023/06/21 05:13:19;;;;;;;;;9.00;8.00;;;;;;;;1987542;28;2746179;-75
2023/06/21 05:14:30;;;;;;;;;5.67;5.00;;;;;;;;2002078;28;2750370;-77
2023/06/21 05:15:40;;;;;;;;;3.67;3.67;;;;;;;;2018421;28;2741952;-75
2023/06/21 05:16:51;;;;;;;;;7.00;7.00;;;;;;;;1973468;28;2725290;-75
2023/06/21 05:18:02;;;;;;;;;8.33;5.33;;;;;;;;2011686;28;2738846;-75
2023/06/21 05:19:12;;;;;;;;;6.33;6.33;;;;;;;;2011037;28;3447570;-75
2023/06/21 05:20:23;;;;;;;;;5.00;3.00;;;;;;;;2012951;28;2750357;-75
2023/06/21 05:21:34;;;;;;;;;6.00;6.00;;;;;;;;2010885;28;2729548;-75
2023/06/21 05:22:45;;;;;;;;;7.33;7.00;;;;;;;;2012516;28;3459700;-75
2023/06/21 05:23:56;;;;;;;;;10.00;8.50;;;;;;;;2008947;28;2761715;-76
2023/06/21 05:25:07;;;;;;;;;8.00;8.00;;;;;;;;2013506;28;2479451;-76
2023/06/21 05:26:18;;;;;;;;;8.00;7.00;;;;;;;;1994759;28;2734648;-76
2023/06/21 05:27:29;;;;;;;;;7.00;7.00;;;;;;;;2013839;28;2739886;-76
2023/06/21 05:28:40;;;;;;;;;12.33;8.33;;;;;;;;2009168;28;3479425;-73
2023/06/21 05:29:51;;;;;;;;;8.33;7.67;;;;;;;;2014437;28;3447109;-73
2023/06/21 05:31:01;;;;;;;;;8.00;7.00;;;;;;;;1989276;28;2739860;-74
2023/06/21 05:32:12;;;;;;;;;9.00;7.00;;;;;;;;2011956;28;2741995;-73
2023/06/21 05:33:23;;;;;;;;;10.00;7.33;;;;;;;;2020483;28;1825295;-73
2023/06/21 05:34:34;;;;;;;;;8.00;8.00;;;;;;;;1995309;28;2737750;-73
2023/06/21 05:35:44;;;;;;;;;8.67;8.00;;;;;;;;2024478;28;1816921;-73
2023/06/21 05:36:55;;;;;;;;;8.00;8.00;;;;;;;;1995258;28;2501275;-73
2023/06/21 05:38:06;;;;;;;;;6.33;4.33;;;;;;;;2016742;28;2742008;-73
2023/06/21 05:39:17;;;;;;;;;8.00;5.67;;;;;;;;2021189;28;1816013;-73
2023/06/21 05:40:27;;;;;;;;;10.00;8.00;;;;;;;;1969942;28;3479399;-73
2023/06/21 05:41:38;;;;;;;;;8.00;8.00;;;;;;;;2003292;28;2737842;-73
2023/06/21 05:42:49;;;;;;;;;9.75;8.00;;;;;;;;2014027;28;1821171;-73
2023/06/21 05:43:59;;;;;;;;;7.67;7.67;;;;;;;;1995639;28;3453373;-73
2023/06/21 05:45:10;;;;;;;;;10.67;6.33;;;;;;;;2014239;28;1829550;-73
2023/06/21 05:46:20;;;;;;;;;8.00;8.00;;;;;;;;1985629;28;2482536;-73
2023/06/21 05:47:31;;;;;;;;;9.00;7.33;;;;;;;;2015229;28;3455409;-73
2023/06/21 05:48:42;;;;;;;;;9.00;7.00;;;;;;;;2016523;28;1828492;-73
2023/06/21 05:49:54;;;;;;;;;5.50;5.25;;;;;;;;2000394;28;1808135;-73
2023/06/21 05:51:05;;;;;;;;;4.67;4.67;;;;;;;;1989419;28;2740942;-73
2023/06/21 05:52:16;;;;;;;;;11.00;8.00;;;;;;;;2017576;28;2765941;-73
2023/06/21 05:53:27;;;;;;;;;7.00;6.33;;;;;;;;2006617;28;3455492;-73
2023/06/21 05:54:41;;;;;;;;;8.00;7.00;;;;;;;;1996561;28;2746186;-73
2023/06/21 05:55:56;;;;;;;;;8.83;7.17;;;;;;;;2020140;28;1820063;-73
2023/06/21 05:57:06;;;;;;;;;6.33;6.33;;;;;;;;1971028;28;2734834;-73
2023/06/21 05:58:20;;;;;;;;;7.25;5.50;;;;;;;;2022255;28;1825323;-73
2023/06/21 05:59:30;;;;;;;;;6.00;6.00;;;;;;;;1995220;28;2473157;-73
2023/06/21 06:00:41;;;;;;;;;11.00;10.00;;;;;;;;2005936;28;2789879;-73
2023/06/21 06:01:52;;;;;;;;;7.00;7.00;;;;;;;;1992418;28;2734072;-73
2023/06/21 06:03:03;;;;;;;;;9.00;7.33;;;;;;;;2014079;28;3457539;-73
2023/06/21 06:04:13;;;;;;;;;8.67;6.00;;;;;;;;2004010;28;2739960;-73
2023/06/21 06:05:24;;;;;;;;;10.00;8.00;;;;;;;;2014649;28;3458647;-73
2023/06/21 06:06:37;;;;;;;;;7.33;7.33;;;;;;;;2022925;28;1816917;-73
2023/06/21 06:07:47;;;;;;;;;6.00;6.00;;;;;;;;1985689;28;2737801;-73
2023/06/21 06:08:58;;;;;;;;;5.50;5.50;;;;;;;;2010037;28;2743435;-73
2023/06/21 06:10:09;;;;;;;;;7.33;6.00;;;;;;;;2018125;28;2733655;-73
2023/06/21 06:11:20;;;;;;;;;5.00;5.00;;;;;;;;2018767;28;2745057;-73
2023/06/21 06:12:30;;;;;;;;;7.50;7.00;;;;;;;;1995455;28;2741939;-73
2023/06/21 06:13:41;;;;;;;;;7.00;7.00;;;;;;;;2022603;28;1806520;-73
2023/06/21 06:14:52;;;;;;;;;4.67;4.67;;;;;;;;1996516;28;2745129;-73
2023/06/21 06:16:03;;;;;;;;;7.00;7.00;;;;;;;;2007667;28;2735703;-73
2023/06/21 06:17:16;;;;;;;;;9.67;5.67;;;;;;;;2004992;28;3468947;-73
2023/06/21 06:18:26;;;;;;;;;6.00;6.00;;;;;;;;1990554;28;1819029;-73
2023/06/21 06:19:38;;;;;;;;;8.00;7.00;;;;;;;;1978238;28;1815877;-73
2023/06/21 06:20:49;;;;;;;;;7.25;6.25;;;;;;;;2004928;28;1815944;-73
2023/06/21 06:22:00;;;;;;;;;7.50;7.50;;;;;;;;1998746;28;1821152;-73
2023/06/21 06:23:11;;;;;;;;;10.00;8.00;;;;;;;;1992337;28;2755914;-73
2023/06/21 06:24:23;;;;;;;;;12.80;8.60;;;;;;;;1993382;28;1819069;-73
2023/06/21 06:25:33;;;;;;;;;7.67;7.67;;;;;;;;1976174;28;3433580;-73
2023/06/21 06:26:44;;;;;;;;;11.25;9.25;;;;;;;;2013775;28;1819073;-73
2023/06/21 06:27:54;;;;;;;;;9.00;8.50;;;;;;;;1984032;28;2735695;-73
2023/06/21 06:29:05;;;;;;;;;8.50;8.00;;;;;;;;2010456;28;2732542;-73
2023/06/21 06:30:16;;;;;;;;;11.25;8.75;;;;;;;;2023015;28;1829451;-73
2023/06/21 06:31:30;;;;;;;;;7.50;7.50;;;;;;;;2027097;28;1820133;-73
2023/06/21 06:32:40;;;;;;;;;10.00;8.00;;;;;;;;1970632;28;3473152;-73
2023/06/21 06:33:51;;;;;;;;;10.00;8.50;;;;;;;;2015004;28;2756515;-73
2023/06/21 06:35:04;;;;;;;;;7.80;6.00;;;;;;;;2026387;28;1820032;-73
2023/06/21 06:36:15;;;;;;;;;12.00;9.00;;;;;;;;1987290;28;2763810;-73
2023/06/21 06:37:26;;;;;;;;;8.75;8.00;;;;;;;;2025945;28;1821121;-73
2023/06/21 06:38:39;;;;;;;;;8.17;8.00;;;;;;;;1995294;28;1819037;-73
2023/06/21 06:39:49;;;;;;;;;6.00;5.50;;;;;;;;1964987;28;2747136;-73
2023/06/21 06:41:00;;;;;;;;;8.67;7.00;;;;;;;;2019386;28;2734228;-73
2023/06/21 06:42:11;;;;;;;;;8.00;8.00;;;;;;;;2014043;28;2733639;-72
2023/06/21 06:43:22;;;;;;;;;9.67;8.67;;;;;;;;2015801;28;3486682;-72
2023/06/21 06:44:33;;;;;;;;;9.00;9.00;;;;;;;;2016345;28;2759073;-73
2023/06/21 06:45:44;;;;;;;;;9.00;8.00;;;;;;;;2010869;28;2747612;-73
2023/06/21 06:46:54;;;;;;;;;11.75;9.25;;;;;;;;2019264;28;1825279;-73
2023/06/21 06:48:07;;;;;;;;;6.80;6.80;;;;;;;;2014459;28;1822193;-73
2023/06/21 06:49:18;;;;;;;;;9.00;8.00;;;;;;;;1978524;28;1829458;-73
2023/06/21 06:50:31;;;;;;;;;9.50;7.50;;;;;;;;2025503;28;1819033;-73
2023/06/21 06:51:45;;;;;;;;;10.33;8.83;;;;;;;;2001356;28;1819114;-73
2023/06/21 06:53:00;;;;;;;;;10.00;10.00;;;;;;;;2000478;28;1827452;-73
2023/06/21 06:54:11;;;;;;;;;7.00;4.00;;;;;;;;1973356;28;2746091;-73
2023/06/21 06:55:21;;;;;;;;;10.50;9.00;;;;;;;;2000289;28;2761727;-73
2023/06/21 06:56:33;;;;;;;;;11.33;9.33;;;;;;;;2007955;28;2771054;-73